航空気象通報

ウインドサーファーのための航空気象通報による風予報です。

4/7-8の航空気象通報(国内、海外)

2008年04月07日 21時37分39秒 | TAF
羽田空港
TAF RJTT 070844Z 071812 07018KT 4000 -SHRA BR FEW005 SCT008 BKN015
BECMG 1821 02028KT 6000 -SHRA
TEMPO 1824 02028G38KT 2000 SHRA BR FEW005 BKN008 BKN015
TEMPO 0006 35032G45KT 4000 SHRA BR
TEMPO 0609 35028G40KT
日本時間8日03時:070度から18ノットの風
03-06時:風が変化
06-21時:020度から28ノットの風
但し、03-09時:一時、020度から28ノットの風
但し、09-15時:一時、350度から32ノット、突風45ノット
但し、15-18時:一時、350度から28ノット、突風40ノット


那覇空港
TAF ROAH 070842Z 071812 04005KT 9999 FEW020
BECMG 0609 10010KT
日本時間8日03-15時:040度から5ノットの風
15-18時:風が変化
18-21時:100度から10ノットの風


マウイのカフルイ空港
PHOG 071122Z 071212 04010KT P6SM SCT030 SCT050
FM1900 04015KT P6SM SCT030 SCT050
FM0600 04010KT P6SM SCT030 SCT050
ハワイ時間7日02-09時:040度から10ノットの風
09-19時:040度から15ノットの風
19時-8日02時:040度から10ノットの風


サイパン空港
PGSN 071136Z 071212 06007KT P6SM VCSH SCT020
FM2200 07012KT P6SM VCSH SCT023
マリアナ時間7日22時-8日08時:060度から7ノットの風
08-22時:070度から12ノットの風
コメント
この記事をはてなブックマークに追加